createdAt,value
2023-03-10T00:00:53.336Z,98336.75
2023-03-10T00:01:54.914Z,98328.81
2023-03-10T00:03:17.408Z,98334.13
2023-03-10T00:04:40.338Z,98340.44
2023-03-10T00:06:03.424Z,98332.50
2023-03-10T00:07:26.130Z,98336.13
2023-03-10T00:08:48.865Z,98331.03
2023-03-10T00:10:12.011Z,98316.97
2023-03-10T00:11:34.624Z,98322.25
2023-03-10T00:12:56.289Z,98313.66
2023-03-10T00:14:18.955Z,98329.38
2023-03-10T00:15:41.475Z,98324.25
2023-03-10T00:17:04.241Z,98308.34
2023-03-10T00:18:25.848Z,98314.66
2023-03-10T00:19:49.727Z,98318.13
2023-03-10T00:21:15.125Z,98317.31
2023-03-10T00:22:37.768Z,98314.84
2023-03-10T00:24:00.396Z,98310.38
2023-03-10T00:25:22.885Z,98304.06
2023-03-10T00:26:46.461Z,98304.22
2023-03-10T00:28:07.996Z,98302.41
2023-03-10T00:29:30.519Z,98305.91
2023-03-10T00:31:00.906Z,98293.47
2023-03-10T00:32:23.506Z,98297.75
2023-03-10T00:33:50.551Z,98329.53
2023-03-10T00:35:13.691Z,98329.53
2023-03-10T00:36:36.638Z,98334.84
2023-03-10T00:37:59.184Z,98340.13
2023-03-10T00:39:21.942Z,98359.34
2023-03-10T00:40:43.472Z,98355.69
2023-03-10T00:42:06.311Z,98356.34
2023-03-10T00:43:29.444Z,98355.31
2023-03-10T00:44:52.110Z,98351.66
2023-03-10T00:46:14.188Z,98360.28
2023-03-10T00:47:36.777Z,98360.91
2023-03-10T00:48:59.903Z,98362.56
2023-03-10T00:50:22.798Z,98363.38
2023-03-10T00:51:45.312Z,98362.38
2023-03-10T00:53:06.884Z,98363.19
2023-03-10T00:54:29.393Z,98357.91
2023-03-10T00:55:58.485Z,98356.91
2023-03-10T00:57:20.980Z,98359.56
2023-03-10T00:58:43.476Z,98361.19
2023-03-10T01:00:08.158Z,98352.25
2023-03-10T01:01:32.746Z,98365.50
2023-03-10T01:02:55.477Z,98357.53
2023-03-10T01:04:19.094Z,98356.53
2023-03-10T01:05:41.991Z,98356.53
2023-03-10T01:07:04.547Z,98359.19
2023-03-10T01:08:27.124Z,98360.81
2023-03-10T01:09:49.659Z,98354.72
2023-03-10T01:11:14.103Z,98350.22
2023-03-10T01:12:36.604Z,98350.22
2023-03-10T01:14:00.419Z,98351.88
2023-03-10T01:15:23.229Z,98362.47
2023-03-10T01:16:45.842Z,98346.56
2023-03-10T01:18:08.581Z,98356.34
2023-03-10T01:19:31.186Z,98351.88
2023-03-10T01:20:54.093Z,98348.22
2023-03-10T01:22:16.645Z,98355.19
2023-03-10T01:23:39.239Z,98355.19
2023-03-10T01:25:00.801Z,98355.19
2023-03-10T01:26:24.300Z,98355.19
2023-03-10T01:27:45.852Z,98350.69
2023-03-10T01:29:08.502Z,98356.81
2023-03-10T01:30:30.202Z,98355.81
2023-03-10T01:31:52.810Z,98349.88
2023-03-10T01:33:15.549Z,98351.50
2023-03-10T01:34:38.111Z,98353.31
2023-03-10T01:36:02.468Z,98344.59
2023-03-10T01:37:04.131Z,98344.59
2023-03-10T01:38:07.568Z,98339.28
2023-03-10T01:39:10.095Z,98337.41
2023-03-10T01:40:16.194Z,98340.06
2023-03-10T01:41:23.497Z,98333.97
2023-03-10T01:42:25.323Z,98333.97
2023-03-10T01:43:30.105Z,98337.41
2023-03-10T01:44:32.681Z,98340.91
2023-03-10T01:46:20.144Z,98344.59
2023-03-10T01:47:22.697Z,98329.00
2023-03-10T01:48:24.704Z,98339.28
2023-03-10T01:49:34.383Z,98329.66
2023-03-10T01:50:36.050Z,98329.84
2023-03-10T01:51:40.804Z,98330.66
2023-03-10T01:52:46.822Z,98328.22
2023-03-10T01:53:48.406Z,98322.91
2023-03-10T01:54:54.353Z,98329.22
2023-03-10T01:55:59.229Z,98324.91
2023-03-10T01:57:01.783Z,98321.41
2023-03-10T01:58:05.422Z,98321.41
2023-03-10T01:59:08.781Z,98332.84
2023-03-10T02:00:13.237Z,98329.22
2023-03-10T02:01:18.778Z,98325.72
2023-03-10T02:02:21.441Z,98322.09
2023-03-10T02:03:26.932Z,98321.06
2023-03-10T02:04:36.056Z,98327.19
2023-03-10T02:05:41.595Z,98329.00
2023-03-10T02:06:48.485Z,98329.84
2023-03-10T02:07:50.739Z,98334.31
2023-03-10T02:08:55.896Z,98337.78
2023-03-10T02:09:59.963Z,98335.97
2023-03-10T02:11:05.299Z,98334.31
2023-03-10T02:12:19.210Z,98343.91
2023-03-10T02:13:20.756Z,98339.44
2023-03-10T02:14:26.908Z,98336.97
2023-03-10T02:15:29.142Z,98335.97
2023-03-10T02:16:32.003Z,98336.97
2023-03-10T02:17:35.542Z,98334.31
2023-03-10T02:18:37.269Z,98334.31
2023-03-10T02:20:04.260Z,98334.31
2023-03-10T02:21:14.100Z,98334.31
2023-03-10T02:22:17.949Z,98329.22
2023-03-10T02:23:25.031Z,98336.34
2023-03-10T02:24:32.493Z,98336.34
2023-03-10T02:25:42.449Z,98336.34
2023-03-10T02:26:52.092Z,98334.69
2023-03-10T02:27:55.393Z,98339.19
2023-03-10T02:29:00.524Z,98336.53
2023-03-10T02:30:05.394Z,98336.53
2023-03-10T02:31:09.864Z,98333.06
2023-03-10T02:32:13.721Z,98331.41
2023-03-10T02:33:20.587Z,98319.78
2023-03-10T02:34:25.296Z,98328.75
2023-03-10T02:35:28.040Z,98321.78
2023-03-10T02:36:29.853Z,98321.78
2023-03-10T02:37:35.267Z,98323.63
2023-03-10T02:38:36.812Z,98333.41
2023-03-10T02:39:39.356Z,98322.16
2023-03-10T02:40:44.901Z,98329.28
2023-03-10T02:41:47.800Z,98319.69
2023-03-10T02:42:49.699Z,98315.22
2023-03-10T02:43:55.828Z,98307.44
2023-03-10T02:44:57.482Z,98313.75
2023-03-10T02:46:03.761Z,98310.25
2023-03-10T02:47:05.865Z,98310.47
2023-03-10T02:48:09.836Z,98313.94
2023-03-10T02:49:13.827Z,98311.28
2023-03-10T02:50:18.253Z,98318.22
2023-03-10T02:51:23.191Z,98316.59
2023-03-10T02:52:30.368Z,98318.22
2023-03-10T02:53:32.131Z,98315.56
2023-03-10T02:54:34.776Z,98314.75
2023-03-10T02:55:36.442Z,98312.91
2023-03-10T02:56:39.606Z,98313.56
2023-03-10T02:57:41.140Z,98317.88
2023-03-10T02:58:43.898Z,98308.91
2023-03-10T02:59:46.783Z,98308.91
2023-03-10T03:00:52.863Z,98307.91
2023-03-10T03:02:05.402Z,98310.56
2023-03-10T03:03:08.248Z,98301.63
2023-03-10T03:04:10.833Z,98303.44
2023-03-10T03:05:12.435Z,98299.59
2023-03-10T03:06:15.015Z,98304.06
2023-03-10T03:07:16.663Z,98297.94
2023-03-10T03:08:21.014Z,98286.34
2023-03-10T03:09:23.576Z,98289.00
2023-03-10T03:10:25.774Z,98288.16
2023-03-10T03:11:28.717Z,98299.75
2023-03-10T03:12:30.339Z,98292.16
2023-03-10T03:13:35.278Z,98289.72
2023-03-10T03:14:36.821Z,98292.38
2023-03-10T03:15:41.002Z,98291.72
2023-03-10T03:16:42.735Z,98291.72
2023-03-10T03:17:45.253Z,98295.38
2023-03-10T03:18:46.844Z,98298.03
2023-03-10T03:19:49.447Z,98300.69
2023-03-10T03:20:51.139Z,98299.03
2023-03-10T03:21:53.651Z,98304.34
2023-03-10T03:22:55.274Z,98295.38
2023-03-10T03:23:57.797Z,98304.34
2023-03-10T03:24:59.627Z,98310.63
2023-03-10T03:26:02.228Z,98304.34
2023-03-10T03:27:05.416Z,98314.94
2023-03-10T03:28:09.621Z,98316.59
2023-03-10T03:29:12.011Z,98311.28
2023-03-10T03:30:18.324Z,98311.28
2023-03-10T03:31:24.319Z,98312.13
2023-03-10T03:32:27.152Z,98307.63
2023-03-10T03:33:28.719Z,98303.34
2023-03-10T03:34:31.250Z,98296.22
2023-03-10T03:35:35.168Z,98285.63
2023-03-10T03:36:38.085Z,98296.22
2023-03-10T03:37:39.774Z,98287.44
2023-03-10T03:38:42.631Z,98296.22
2023-03-10T03:39:44.458Z,98300.50
2023-03-10T03:40:47.057Z,98299.66
2023-03-10T03:41:48.975Z,98290.09
2023-03-10T03:42:53.629Z,98293.56
2023-03-10T03:43:55.152Z,98297.22
2023-03-10T03:44:57.720Z,98299.03
2023-03-10T03:45:59.359Z,98301.69
2023-03-10T03:47:03.666Z,98296.38
2023-03-10T03:48:05.300Z,98299.03
2023-03-10T03:49:07.844Z,98300.03
2023-03-10T03:50:11.857Z,98301.69
2023-03-10T03:51:14.489Z,98300.03
2023-03-10T03:52:16.317Z,98295.75
2023-03-10T03:53:18.883Z,98293.09
2023-03-10T03:54:27.587Z,98294.94
2023-03-10T03:55:30.241Z,98303.69
2023-03-10T03:56:32.786Z,98296.75
2023-03-10T03:57:34.450Z,98299.41
2023-03-10T03:58:37.092Z,98298.56
2023-03-10T03:59:38.643Z,98299.41
2023-03-10T04:00:41.169Z,98295.09
2023-03-10T04:01:43.638Z,98293.28
2023-03-10T04:02:48.824Z,98295.09
2023-03-10T04:03:51.278Z,98296.13
2023-03-10T04:04:54.504Z,98294.47
2023-03-10T04:05:56.355Z,98291.00
2023-03-10T04:06:58.905Z,98283.03
2023-03-10T04:08:00.428Z,98279.41
2023-03-10T04:09:03.684Z,98274.25
2023-03-10T04:10:06.992Z,98273.25
2023-03-10T04:11:09.688Z,98272.63
2023-03-10T04:12:11.719Z,98271.63
2023-03-10T04:13:14.254Z,98271.63
2023-03-10T04:14:16.724Z,98275.28
2023-03-10T04:15:18.569Z,98278.94
2023-03-10T04:16:21.212Z,98274.47
2023-03-10T04:17:22.823Z,98274.47
2023-03-10T04:18:26.934Z,98279.56
2023-03-10T04:19:28.848Z,98281.38
2023-03-10T04:20:31.347Z,98278.72
2023-03-10T04:21:33.377Z,98281.38
2023-03-10T04:22:45.689Z,98271.63
2023-03-10T04:23:48.299Z,98269.78
2023-03-10T04:24:49.870Z,98267.97
2023-03-10T04:25:52.363Z,98268.78
2023-03-10T04:26:53.943Z,98260.84
2023-03-10T04:27:58.017Z,98271.25
2023-03-10T04:28:59.864Z,98269.41
2023-03-10T04:30:02.666Z,98275.56
2023-03-10T04:31:05.823Z,98267.59
2023-03-10T04:32:07.625Z,98264.78
2023-03-10T04:33:10.955Z,98266.59
2023-03-10T04:34:13.972Z,98269.06
2023-03-10T04:35:16.768Z,98277.00
2023-03-10T04:36:19.404Z,98262.75
2023-03-10T04:37:22.361Z,98269.88
2023-03-10T04:38:24.852Z,98264.59
2023-03-10T04:39:26.500Z,98264.59
2023-03-10T04:40:28.961Z,98269.88
2023-03-10T04:41:30.583Z,98270.72
2023-03-10T04:42:33.916Z,98270.72
2023-03-10T04:43:36.421Z,98263.59
2023-03-10T04:44:39.256Z,98266.25
2023-03-10T04:45:40.879Z,98259.91
2023-03-10T04:46:45.936Z,98259.91
2023-03-10T04:47:47.551Z,98261.56
2023-03-10T04:48:50.069Z,98257.91
2023-03-10T04:50:02.968Z,98260.56
2023-03-10T04:51:08.261Z,98258.75
2023-03-10T04:52:09.868Z,98257.09
2023-03-10T04:53:12.372Z,98256.94
2023-03-10T04:54:13.904Z,98254.28
2023-03-10T04:55:17.161Z,98257.91
2023-03-10T04:56:19.493Z,98252.63
2023-03-10T04:57:24.428Z,98252.63
2023-03-10T04:58:26.219Z,98254.28
2023-03-10T04:59:29.407Z,98256.94
2023-03-10T05:00:32.054Z,98256.94
2023-03-10T05:01:40.491Z,98248.16
2023-03-10T05:02:42.151Z,98257.91
2023-03-10T05:03:45.215Z,98252.63
2023-03-10T05:04:46.964Z,98252.63
2023-03-10T05:05:53.912Z,98252.63
2023-03-10T05:06:56.789Z,98250.97
2023-03-10T05:07:58.345Z,98244.00
2023-03-10T05:09:04.473Z,98244.84
2023-03-10T05:10:08.219Z,98244.00
2023-03-10T05:11:09.999Z,98246.66
2023-03-10T05:12:12.468Z,98237.91
2023-03-10T05:13:14.114Z,98245.66
2023-03-10T05:14:16.911Z,98242.38
2023-03-10T05:15:18.780Z,98247.69
2023-03-10T05:16:23.001Z,98245.03
2023-03-10T05:17:24.832Z,98242.38
2023-03-10T05:18:27.380Z,98244.00
2023-03-10T05:19:29.209Z,98242.19
2023-03-10T05:20:38.539Z,98236.88
2023-03-10T05:21:41.468Z,98239.53
2023-03-10T05:22:53.963Z,98240.38
2023-03-10T05:23:55.561Z,98244.00
2023-03-10T05:24:58.728Z,98243.22
2023-03-10T05:26:04.194Z,98244.00
2023-03-10T05:27:08.203Z,98236.88
2023-03-10T05:28:09.808Z,98238.72
2023-03-10T05:29:12.388Z,98241.34
2023-03-10T05:30:15.860Z,98244.00
2023-03-10T05:31:26.475Z,98243.00
2023-03-10T05:32:28.262Z,98242.38
2023-03-10T05:33:31.556Z,98237.09
2023-03-10T05:34:33.161Z,98243.22
2023-03-10T05:35:35.738Z,98245.88
2023-03-10T05:36:37.291Z,98245.88
2023-03-10T05:37:42.994Z,98244.00
2023-03-10T05:38:46.167Z,98242.19
2023-03-10T05:39:48.722Z,98238.72
2023-03-10T05:40:50.287Z,98241.19
2023-03-10T05:42:02.909Z,98238.53
2023-03-10T05:43:04.475Z,98237.53
2023-03-10T05:44:07.197Z,98234.06
2023-03-10T05:45:10.782Z,98233.06
2023-03-10T05:46:13.444Z,98225.13
2023-03-10T05:47:18.966Z,98228.56
2023-03-10T05:48:21.461Z,98237.34
2023-03-10T05:49:24.625Z,98224.09
2023-03-10T05:50:26.283Z,98224.09
2023-03-10T05:51:29.063Z,98223.09
2023-03-10T05:52:30.658Z,98228.41
2023-03-10T05:53:35.703Z,98225.75
2023-03-10T05:54:37.371Z,98228.56
2023-03-10T05:55:39.900Z,98227.78
2023-03-10T05:56:41.602Z,98225.13
2023-03-10T05:57:44.540Z,98235.72
2023-03-10T05:58:47.421Z,98240.81
2023-03-10T05:59:49.905Z,98234.69
2023-03-10T06:00:51.924Z,98234.69
2023-03-10T06:01:54.454Z,98231.03
2023-03-10T06:02:56.113Z,98237.34
2023-03-10T06:03:59.011Z,98235.53
2023-03-10T06:05:00.580Z,98235.53
2023-03-10T06:06:03.931Z,98228.19
2023-03-10T06:07:16.454Z,98232.88
2023-03-10T06:08:21.033Z,98230.84
2023-03-10T06:09:24.900Z,98234.31
2023-03-10T06:10:26.532Z,98228.84
2023-03-10T06:11:29.144Z,98233.94
2023-03-10T06:12:32.298Z,98228.66
2023-03-10T06:13:34.953Z,98231.13
2023-03-10T06:14:38.001Z,98231.97
2023-03-10T06:15:51.620Z,98235.44
2023-03-10T06:16:53.928Z,98235.22
2023-03-10T06:17:56.800Z,98235.06
2023-03-10T06:18:59.701Z,98237.88
2023-03-10T06:20:02.686Z,98241.38
2023-03-10T06:21:06.877Z,98237.72
2023-03-10T06:22:08.567Z,98235.22
2023-03-10T06:23:11.158Z,98235.91
2023-03-10T06:24:12.761Z,98239.53
2023-03-10T06:25:21.469Z,98238.53
2023-03-10T06:26:24.320Z,98237.72
2023-03-10T06:27:27.182Z,98235.22
2023-03-10T06:28:32.824Z,98233.41
2023-03-10T06:29:35.583Z,98233.59
2023-03-10T06:30:37.447Z,98237.88
2023-03-10T06:31:40.241Z,98238.88
2023-03-10T06:32:42.806Z,98237.88
2023-03-10T06:33:45.797Z,98238.72
2023-03-10T06:34:47.541Z,98246.66
2023-03-10T06:35:50.226Z,98235.22
2023-03-10T06:36:52.769Z,98231.75
2023-03-10T06:37:54.577Z,98244.63
2023-03-10T06:38:57.226Z,98240.53
2023-03-10T06:39:58.926Z,98247.50
2023-03-10T06:41:03.181Z,98242.19
2023-03-10T06:42:05.068Z,98248.13
2023-03-10T06:43:07.619Z,98243.84
2023-03-10T06:44:09.168Z,98240.16
2023-03-10T06:45:15.968Z,98246.28
2023-03-10T06:46:25.446Z,98234.88
2023-03-10T06:47:27.103Z,98244.28
2023-03-10T06:48:29.680Z,98238.81
2023-03-10T06:49:33.415Z,98239.44
2023-03-10T06:50:35.287Z,98242.91
2023-03-10T06:51:37.889Z,98242.72
2023-03-10T06:52:39.658Z,98243.56
2023-03-10T06:53:42.568Z,98240.72
2023-03-10T06:54:44.435Z,98236.22
2023-03-10T06:55:57.093Z,98242.34
2023-03-10T06:57:01.890Z,98240.34
2023-03-10T06:58:03.634Z,98238.34
2023-03-10T06:59:06.137Z,98241.78
2023-03-10T07:00:11.699Z,98251.41
2023-03-10T07:01:25.916Z,98248.75
2023-03-10T07:02:27.612Z,98257.53
2023-03-10T07:03:30.399Z,98258.34
2023-03-10T07:04:32.031Z,98260.81
2023-03-10T07:05:34.674Z,98261.63
2023-03-10T07:06:36.563Z,98263.28
2023-03-10T07:07:39.436Z,98257.16
2023-03-10T07:08:41.001Z,98254.31
2023-03-10T07:09:43.574Z,98255.94
2023-03-10T07:10:45.227Z,98259.25
2023-03-10T07:11:50.140Z,98261.09
2023-03-10T07:12:55.296Z,98265.34
2023-03-10T07:13:57.944Z,98263.53
2023-03-10T07:14:59.711Z,98256.41
2023-03-10T07:16:02.495Z,98260.72
2023-03-10T07:17:04.320Z,98262.38
2023-03-10T07:18:07.014Z,98266.63
2023-03-10T07:19:09.639Z,98263.00
2023-03-10T07:20:12.658Z,98263.00
2023-03-10T07:21:17.988Z,98266.47
2023-03-10T07:22:19.523Z,98263.00
2023-03-10T07:23:22.754Z,98271.13
2023-03-10T07:24:34.607Z,98265.00
2023-03-10T07:25:37.871Z,98272.97
2023-03-10T07:26:40.490Z,98271.13
2023-03-10T07:27:42.105Z,98269.94
2023-03-10T07:28:56.032Z,98267.91
2023-03-10T07:29:57.634Z,98277.53
2023-03-10T07:31:03.768Z,98264.06
2023-03-10T07:32:06.752Z,98268.53
2023-03-10T07:33:10.601Z,98272.03
2023-03-10T07:34:13.237Z,98268.53
2023-03-10T07:35:16.520Z,98265.72
2023-03-10T07:36:21.129Z,98271.66
2023-03-10T07:37:22.787Z,98275.78
2023-03-10T07:38:25.328Z,98276.19
2023-03-10T07:39:29.716Z,98279.31
2023-03-10T07:40:31.426Z,98276.09
2023-03-10T07:41:34.009Z,98280.25
2023-03-10T07:42:36.538Z,98277.22
2023-03-10T07:43:38.149Z,98282.16
2023-03-10T07:44:42.083Z,98284.41
2023-03-10T07:45:43.618Z,98278.75
2023-03-10T07:46:46.303Z,98281.03
2023-03-10T07:47:51.220Z,98280.66
2023-03-10T07:48:53.829Z,98281.28
2023-03-10T07:49:55.439Z,98273.78
2023-03-10T07:50:58.653Z,98276.88
2023-03-10T07:52:00.206Z,98277.13
2023-03-10T07:53:02.726Z,98278.22
2023-03-10T07:54:05.023Z,98280.28
2023-03-10T07:55:08.162Z,98280.94
2023-03-10T07:56:12.032Z,98279.91
2023-03-10T07:57:16.030Z,98282.38
2023-03-10T07:58:18.337Z,98277.25
2023-03-10T07:59:30.860Z,98286.25
2023-03-10T08:00:33.826Z,98284.19
2023-03-10T08:01:44.836Z,98283.59
2023-03-10T08:02:46.467Z,98279.28
2023-03-10T08:03:50.031Z,98279.28
2023-03-10T08:04:52.414Z,98281.31
2023-03-10T08:05:55.785Z,98279.66
2023-03-10T08:07:08.958Z,98283.31
2023-03-10T08:08:16.590Z,98280.03
2023-03-10T08:09:19.107Z,98288.00
2023-03-10T08:10:20.871Z,98286.97
2023-03-10T08:11:23.438Z,98281.66
2023-03-10T08:12:25.448Z,98284.13
2023-03-10T08:13:34.696Z,98287.78
2023-03-10T08:14:36.601Z,98284.13
2023-03-10T08:15:40.709Z,98288.63
2023-03-10T08:16:43.332Z,98282.94
2023-03-10T08:17:45.857Z,98287.25
2023-03-10T08:18:49.573Z,98296.47
2023-03-10T08:19:52.216Z,98289.97
2023-03-10T08:20:54.696Z,98282.44
2023-03-10T08:21:57.556Z,98290.03
2023-03-10T08:23:00.448Z,98286.97
2023-03-10T08:24:02.956Z,98292.91
2023-03-10T08:25:12.448Z,98297.03
2023-03-10T08:26:17.108Z,98290.53
2023-03-10T08:27:24.215Z,98294.00
2023-03-10T08:28:32.520Z,98299.13
2023-03-10T08:29:37.795Z,98294.44
2023-03-10T08:30:57.277Z,98292.41
2023-03-10T08:32:08.785Z,98295.69
2023-03-10T08:33:11.540Z,98297.97
2023-03-10T08:34:14.757Z,98294.94
2023-03-10T08:35:16.827Z,98296.38
2023-03-10T08:36:21.927Z,98301.50
2023-03-10T08:37:24.525Z,98296.84
2023-03-10T08:38:26.224Z,98295.63
2023-03-10T08:39:28.877Z,98292.75
2023-03-10T08:40:32.438Z,98297.06
2023-03-10T08:41:37.530Z,98302.19
2023-03-10T08:42:39.396Z,98292.41
2023-03-10T08:43:42.639Z,98300.38
2023-03-10T08:44:45.284Z,98296.69
2023-03-10T08:45:48.276Z,98297.31
2023-03-10T08:46:51.244Z,98294.66
2023-03-10T08:47:52.805Z,98292.63
2023-03-10T08:48:56.570Z,98295.28
2023-03-10T08:49:58.156Z,98296.94
2023-03-10T08:51:00.672Z,98298.56
2023-03-10T08:52:03.676Z,98294.28
2023-03-10T08:53:06.381Z,98293.06
2023-03-10T08:54:09.598Z,98295.50
2023-03-10T08:55:22.265Z,98293.50
2023-03-10T08:56:24.522Z,98297.59
2023-03-10T08:57:27.220Z,98300.69
2023-03-10T08:58:29.658Z,98299.47
2023-03-10T08:59:32.226Z,98293.78
2023-03-10T09:00:34.086Z,98294.22
2023-03-10T09:01:43.476Z,98288.50
2023-03-10T09:02:45.187Z,98294.25
2023-03-10T09:03:47.733Z,98289.38
2023-03-10T09:04:51.155Z,98289.66
2023-03-10T09:05:55.313Z,98297.03
2023-03-10T09:06:57.971Z,98294.78
2023-03-10T09:07:59.760Z,98296.88
2023-03-10T09:09:02.684Z,98296.28
2023-03-10T09:10:05.199Z,98296.91
2023-03-10T09:11:20.114Z,98299.38
2023-03-10T09:12:21.818Z,98306.13
2023-03-10T09:13:24.807Z,98301.44
2023-03-10T09:14:27.393Z,98305.38
2023-03-10T09:15:30.080Z,98302.50
2023-03-10T09:16:44.438Z,98297.00
2023-03-10T09:17:46.067Z,98299.25
2023-03-10T09:18:49.388Z,98292.88
2023-03-10T09:19:51.989Z,98298.63
2023-03-10T09:20:53.545Z,98296.81
2023-03-10T09:22:06.252Z,98291.09
2023-03-10T09:23:09.042Z,98294.38
2023-03-10T09:24:13.111Z,98296.00
2023-03-10T09:25:15.825Z,98295.44
2023-03-10T09:26:18.392Z,98304.03
2023-03-10T09:27:30.188Z,98296.47
2023-03-10T09:28:31.839Z,98304.03
2023-03-10T09:29:42.996Z,98296.69
2023-03-10T09:30:47.955Z,98299.97
2023-03-10T09:31:51.998Z,98304.06
2023-03-10T09:32:55.687Z,98301.63
2023-03-10T09:33:57.619Z,98303.06
2023-03-10T09:35:00.348Z,98305.53
2023-03-10T09:36:07.385Z,98301.84
2023-03-10T09:37:10.602Z,98297.16
2023-03-10T09:38:12.926Z,98307.59
2023-03-10T09:39:15.764Z,98303.28
2023-03-10T09:40:19.338Z,98300.41
2023-03-10T09:41:38.284Z,98305.75
2023-03-10T09:42:42.946Z,98295.09
2023-03-10T09:43:58.835Z,98300.41
2023-03-10T09:45:34.490Z,98301.44
2023-03-10T09:46:50.438Z,98300.41
2023-03-10T09:48:05.326Z,98307.00
2023-03-10T09:49:16.711Z,98298.38
2023-03-10T09:50:35.157Z,98299.00
2023-03-10T09:51:44.344Z,98304.94
2023-03-10T09:52:47.747Z,98299.63
2023-03-10T09:54:01.695Z,98298.38
2023-03-10T09:55:20.811Z,98303.31
2023-03-10T09:56:30.113Z,98300.66
2023-03-10T09:57:33.392Z,98303.13
2023-03-10T09:58:39.325Z,98303.72
2023-03-10T09:59:44.292Z,98301.72
2023-03-10T10:00:47.047Z,98302.53
2023-03-10T10:01:53.499Z,98298.00
2023-03-10T10:03:08.660Z,98304.38
2023-03-10T10:04:13.865Z,98302.94
2023-03-10T10:05:21.609Z,98304.56
2023-03-10T10:06:28.766Z,98301.72
2023-03-10T10:07:42.209Z,98298.66
2023-03-10T10:08:54.851Z,98302.56
2023-03-10T10:10:09.304Z,98308.31
2023-03-10T10:11:16.180Z,98303.38
2023-03-10T10:12:23.564Z,98307.09
2023-03-10T10:13:29.787Z,98304.84
2023-03-10T10:14:33.167Z,98305.44
2023-03-10T10:15:39.400Z,98297.03
2023-03-10T10:19:13.628Z,98297.69
2023-03-10T10:20:22.906Z,98292.97
2023-03-10T10:21:42.384Z,98291.75
2023-03-10T10:22:46.067Z,98295.25
2023-03-10T10:23:50.467Z,98291.56
2023-03-10T10:25:02.454Z,98299.75
2023-03-10T10:26:11.848Z,98296.25
2023-03-10T10:27:22.373Z,98294.59
2023-03-10T10:28:33.988Z,98296.25
2023-03-10T10:29:42.221Z,98294.22
2023-03-10T10:30:44.487Z,98298.50
2023-03-10T10:32:05.276Z,98294.44
2023-03-10T10:33:10.296Z,98306.50
2023-03-10T10:34:22.755Z,98304.69
2023-03-10T10:35:27.517Z,98304.06
2023-03-10T10:36:32.449Z,98309.59
2023-03-10T10:37:38.761Z,98299.34
2023-03-10T10:38:50.328Z,98303.25
2023-03-10T10:39:54.819Z,98301.78
2023-03-10T10:41:01.833Z,98305.84
2023-03-10T10:42:15.372Z,98306.69
2023-03-10T10:43:27.977Z,98313.63
2023-03-10T10:44:30.588Z,98302.34
2023-03-10T10:45:41.202Z,98303.78
2023-03-10T10:46:53.407Z,98304.59
2023-03-10T10:47:56.537Z,98302.16
2023-03-10T10:49:06.146Z,98293.97
2023-03-10T10:50:19.768Z,98294.78
2023-03-10T10:51:27.071Z,98300.53
2023-03-10T10:52:30.776Z,98299.31
2023-03-10T10:53:34.344Z,98303.25
2023-03-10T10:54:39.990Z,98300.16
2023-03-10T10:55:43.075Z,98304.25
2023-03-10T10:56:53.271Z,98293.00
2023-03-10T10:58:01.289Z,98299.75
2023-03-10T10:59:07.666Z,98288.91
2023-03-10T11:00:19.374Z,98294.66
2023-03-10T11:01:48.034Z,98284.59
2023-03-10T11:02:50.836Z,98287.88
2023-03-10T11:04:06.650Z,98292.00
2023-03-10T11:05:17.545Z,98298.75
2023-03-10T11:06:27.089Z,98290.75
2023-03-10T11:07:28.728Z,98292.19
2023-03-10T11:08:37.631Z,98293.59
2023-03-10T11:09:40.497Z,98292.59
2023-03-10T11:11:00.153Z,98296.06
2023-03-10T11:12:19.961Z,98298.50
2023-03-10T11:13:29.265Z,98293.78
2023-03-10T11:14:45.076Z,98304.22
2023-03-10T11:15:56.693Z,98304.00
2023-03-10T11:17:04.177Z,98302.78
2023-03-10T11:18:15.746Z,98299.28
2023-03-10T11:19:28.061Z,98296.84
2023-03-10T11:20:41.862Z,98299.69
2023-03-10T11:22:00.039Z,98299.06
2023-03-10T11:23:11.951Z,98299.25
2023-03-10T11:24:20.064Z,98298.66
2023-03-10T11:25:30.788Z,98292.50
2023-03-10T11:26:45.710Z,98301.72
2023-03-10T11:28:10.208Z,98297.41
2023-03-10T11:29:26.350Z,98304.16
2023-03-10T11:30:33.241Z,98314.38
2023-03-10T11:31:41.848Z,98306.19
2023-03-10T11:33:02.420Z,98302.50
2023-03-10T11:34:20.651Z,98311.06
2023-03-10T11:35:43.760Z,98312.25
2023-03-10T11:36:56.585Z,98316.28
2023-03-10T11:38:11.398Z,98320.75
2023-03-10T11:39:22.543Z,98309.91
2023-03-10T11:40:31.696Z,98313.97
2023-03-10T11:41:41.094Z,98305.53
2023-03-10T11:42:54.245Z,98308.41
2023-03-10T11:44:01.180Z,98308.16
2023-03-10T11:45:14.540Z,98299.31
2023-03-10T11:46:25.160Z,98303.38
2023-03-10T11:47:42.054Z,98304.00
2023-03-10T11:48:57.610Z,98307.41
2023-03-10T11:50:07.508Z,98302.06
2023-03-10T11:51:19.258Z,98309.78
2023-03-10T11:52:23.284Z,98301.56
2023-03-10T11:53:35.155Z,98303.78
2023-03-10T11:54:42.427Z,98303.19
2023-03-10T11:55:44.494Z,98299.03
2023-03-10T11:56:49.487Z,98300.88
2023-03-10T11:57:57.820Z,98299.44
2023-03-10T11:59:08.222Z,98299.44
2023-03-10T12:00:21.339Z,98296.59
2023-03-10T12:01:33.122Z,98276.16
2023-03-10T12:02:43.781Z,98283.53
2023-03-10T12:03:53.360Z,98271.50
2023-03-10T12:05:02.989Z,98270.09
2023-03-10T12:06:08.948Z,98270.53
2023-03-10T12:07:18.340Z,98266.44
2023-03-10T12:08:34.114Z,98268.72
2023-03-10T12:09:42.024Z,98273.84
2023-03-10T12:10:43.956Z,98267.34
2023-03-10T12:11:47.862Z,98272.25
2023-03-10T12:12:51.586Z,98268.59
2023-03-10T12:13:59.260Z,98266.94
2023-03-10T12:15:05.754Z,98257.97
2023-03-10T12:16:20.734Z,98255.47
2023-03-10T12:17:23.950Z,98260.00
2023-03-10T12:18:27.051Z,98269.00
2023-03-10T12:19:32.064Z,98271.03
2023-03-10T12:20:34.655Z,98272.84
2023-03-10T12:21:37.212Z,98264.03
2023-03-10T12:22:41.153Z,98266.50
2023-03-10T12:23:45.257Z,98259.38
2023-03-10T12:24:48.884Z,98258.34
2023-03-10T12:25:50.835Z,98262.66
2023-03-10T12:27:03.371Z,98255.09
2023-03-10T12:28:24.165Z,98251.75
2023-03-10T12:29:39.398Z,98258.47
2023-03-10T12:30:45.746Z,98256.19
2023-03-10T12:31:51.209Z,98252.09
2023-03-10T12:32:53.977Z,98258.03
2023-03-10T12:34:14.546Z,98259.44
2023-03-10T12:35:47.620Z,98258.16
2023-03-10T12:36:53.293Z,98251.59
2023-03-10T12:38:30.287Z,98264.66
2023-03-10T12:39:38.440Z,98253.38
2023-03-10T12:40:51.263Z,98252.59
2023-03-10T12:41:54.649Z,98250.72
2023-03-10T12:42:56.222Z,98245.41
2023-03-10T12:44:00.555Z,98249.09
2023-03-10T12:45:24.174Z,98243.53
2023-03-10T12:46:38.304Z,98240.44
2023-03-10T12:47:59.218Z,98236.53
2023-03-10T12:49:14.296Z,98230.78
2023-03-10T12:50:27.814Z,98231.81
2023-03-10T12:51:36.079Z,98229.16
2023-03-10T12:52:49.863Z,98230.59
2023-03-10T12:54:01.465Z,98220.22
2023-03-10T12:55:15.331Z,98219.81
2023-03-10T12:56:39.775Z,98213.91
2023-03-10T12:57:48.556Z,98212.72
2023-03-10T12:58:58.432Z,98215.16
2023-03-10T13:00:06.415Z,98214.78
2023-03-10T13:01:18.355Z,98207.06
2023-03-10T13:02:29.214Z,98206.66
2023-03-10T13:03:47.184Z,98207.47
2023-03-10T13:05:02.639Z,98206.66
2023-03-10T13:06:08.348Z,98204.19
2023-03-10T13:07:15.373Z,98208.66
2023-03-10T13:08:25.320Z,98217.88
2023-03-10T13:09:31.866Z,98209.47
2023-03-10T13:10:36.525Z,98218.44
2023-03-10T13:11:41.203Z,98212.50
2023-03-10T13:12:48.798Z,98214.56
2023-03-10T13:13:52.705Z,98218.41